Time;durP1;ratioP1;P1;durP2;ratioP2;P2;SDS_P1;SDS_P2;PMS_P1;PMS_P2;Temp;Humidity;BMP_temperature;BMP_pressure;BME280_temperature;BME280_humidity;BME280_pressure;Samples;Min_cycle;Max_cycle;Signal;HPM_P1;HPM_P2
2023/02/17 00:01:35;;;;;;;43.90;23.10;;;;;;;-0.26;64.08;101710.98;107683;1251;107546;-62
2023/02/17 00:04:04;;;;;;;43.70;21.80;;;;;;;-0.20;64.20;101710.64;107653;1252;97851;-62
2023/02/17 00:06:32;;;;;;;39.60;20.60;;;;;;;-0.18;64.53;101708.98;107604;1254;97823;-63
2023/02/17 00:09:01;;;;;;;42.00;20.90;;;;;;;-0.17;64.43;101705.59;107641;1252;111335;-64
2023/02/17 00:11:30;;;;;;;51.00;24.60;;;;;;;-0.15;64.30;101711.03;107590;1254;109725;-62
2023/02/17 00:13:59;;;;;;;41.20;21.50;;;;;;;-0.18;64.50;101710.58;107613;1254;107758;-63
2023/02/17 00:16:28;;;;;;;37.60;20.90;;;;;;;-0.20;64.30;101710.98;107592;1256;98047;-63
2023/02/17 00:18:59;;;;;;;40.80;21.90;;;;;;;-0.19;64.49;101708.48;107669;1254;97930;-63
2023/02/17 00:21:30;;;;;;;42.00;20.60;;;;;;;-0.15;64.33;101705.90;107659;1253;112712;-62
2023/02/17 00:23:59;;;;;;;43.80;21.90;;;;;;;-0.11;64.40;101703.84;107636;1254;109919;-63
2023/02/17 00:26:28;;;;;;;48.60;24.50;;;;;;;-0.07;64.56;101707.27;107666;1253;108918;-63
2023/02/17 00:28:57;;;;;;;49.30;23.60;;;;;;;-0.06;64.39;101706.54;107581;1254;97808;-62
2023/02/17 00:31:25;;;;;;;47.90;22.60;;;;;;;-0.10;64.30;101701.36;107649;1253;97726;-63
2023/02/17 00:33:55;;;;;;;47.00;24.00;;;;;;;-0.14;63.92;101698.64;107635;1254;112328;-63
2023/02/17 00:36:25;;;;;;;46.60;22.50;;;;;;;-0.18;63.78;101699.30;107654;1254;109616;-62
2023/02/17 00:38:55;;;;;;;47.70;22.00;;;;;;;-0.23;63.77;101701.02;107619;1253;108236;-63
2023/02/17 00:41:27;;;;;;;54.10;24.80;;;;;;;-0.29;63.48;101700.48;107592;1254;97723;-63
2023/02/17 00:43:58;;;;;;;;;;;;;;;-0.35;63.27;101697.65;107644;1254;97916;-64
2023/02/17 00:46:26;;;;;;;53.60;25.10;;;;;;;-0.41;63.31;101696.75;107589;1253;111658;-63
2023/02/17 00:48:56;;;;;;;48.50;25.20;;;;;;;-0.49;63.60;101695.74;107654;1253;110287;-63
2023/02/17 00:51:24;;;;;;;55.80;26.60;;;;;;;-0.54;63.54;101692.73;107584;1254;108398;-63
2023/02/17 00:53:53;;;;;;;55.10;24.10;;;;;;;-0.61;63.27;101689.58;107643;1253;97817;-63
2023/02/17 00:56:22;;;;;;;46.80;26.10;;;;;;;-0.70;63.33;101689.10;107641;1253;99011;-63
2023/02/17 00:58:50;;;;;;;54.80;25.90;;;;;;;-0.75;63.93;101689.59;107599;1253;110919;-63
2023/02/17 01:01:18;;;;;;;104.50;43.20;;;;;;;-0.81;63.60;101693.08;107690;1254;109239;-63
2023/02/17 01:03:47;;;;;;;146.80;53.30;;;;;;;-0.89;63.83;101693.98;107611;1253;108269;-62
2023/02/17 01:06:25;;;;;;;118.50;46.20;;;;;;;-0.93;64.00;101694.80;107633;1253;97847;-63
2023/02/17 01:08:53;;;;;;;96.80;39.50;;;;;;;-0.97;64.08;101694.19;107622;1254;97854;-64
2023/02/17 01:11:25;;;;;;;79.20;32.80;;;;;;;-1.00;64.17;101693.38;107688;1253;111348;-63
2023/02/17 01:13:55;;;;;;;57.60;27.30;;;;;;;-1.01;64.16;101690.42;107584;1253;109279;-64
2023/02/17 01:16:26;;;;;;;53.90;25.80;;;;;;;-1.03;63.94;101692.76;107580;1256;108499;-63
2023/02/17 01:18:55;;;;;;;59.40;28.50;;;;;;;-1.06;64.17;101688.27;107473;1252;97909;-63
2023/02/17 01:21:26;;;;;;;54.00;27.20;;;;;;;-1.08;64.24;101692.73;107521;1257;97724;-64
2023/02/17 01:23:57;;;;;;;55.30;25.90;;;;;;;-1.11;63.96;101689.80;107519;1257;112457;-62
2023/02/17 01:26:28;;;;;;;57.50;27.60;;;;;;;-1.13;63.93;101686.52;107586;1254;110846;-63
2023/02/17 01:28:57;;;;;;;56.30;26.30;;;;;;;-1.15;63.85;101687.08;107626;1252;109456;-63
2023/02/17 01:31:26;;;;;;;66.20;27.40;;;;;;;-1.18;64.17;101691.03;107691;1253;97840;-62
2023/02/17 01:33:57;;;;;;;54.10;28.20;;;;;;;-1.19;64.32;101694.23;107683;1254;97684;-62
2023/02/17 01:36:26;;;;;;;60.70;27.00;;;;;;;-1.25;64.22;101680.98;107607;1254;111735;-63
2023/02/17 01:38:54;;;;;;;56.80;26.30;;;;;;;-1.30;64.59;101675.98;107623;1253;109650;-62
2023/02/17 01:41:26;;;;;;;56.90;28.40;;;;;;;-1.33;64.29;101681.53;107666;1251;108191;-63
2023/02/17 01:44:10;;;;;;;56.20;29.30;;;;;;;-1.36;64.45;101672.46;107630;1252;97812;-63
2023/02/17 01:46:41;;;;;;;63.60;28.60;;;;;;;-1.39;64.64;101677.10;107617;1251;97917;-64
2023/02/17 01:49:34;;;;;;;73.80;27.60;;;;;;;-1.44;64.65;101670.52;107665;1252;112300;-62
2023/02/17 01:52:18;;;;;;;57.00;27.40;;;;;;;-1.47;64.87;101663.02;107675;1252;110103;-63
2023/02/17 01:54:55;;;;;;;52.60;25.20;;;;;;;-1.49;64.78;101660.98;107562;1254;108538;-63
2023/02/17 01:57:26;;;;;;;55.80;26.20;;;;;;;-1.51;64.87;101652.56;107647;1251;97835;-62
2023/02/17 01:59:57;;;;;;;70.80;32.70;;;;;;;-1.52;65.13;101654.89;107575;1255;97825;-63
2023/02/17 02:02:28;;;;;;;61.60;30.50;;;;;;;-1.51;65.29;101655.38;107623;1251;111920;-63
2023/02/17 02:04:59;;;;;;;62.00;28.80;;;;;;;-1.50;65.74;101652.89;107645;1254;109011;-63
2023/02/17 02:07:33;;;;;;;68.20;30.30;;;;;;;-1.49;65.73;101660.97;107582;1252;108090;-62
2023/02/17 02:10:02;;;;;;;59.40;28.10;;;;;;;-1.49;66.40;101662.73;107626;1252;97822;-64
2023/02/17 02:12:34;;;;;;;52.30;25.60;;;;;;;-1.46;66.37;101663.54;107613;1255;98379;-63
2023/02/17 02:15:10;;;;;;;62.70;26.50;;;;;;;-1.43;66.54;101661.70;107624;1254;112161;-63
2023/02/17 02:17:47;;;;;;;55.30;26.10;;;;;;;-1.38;66.69;101665.82;107649;1251;111440;-65
2023/02/17 02:20:36;;;;;;;57.40;24.80;;;;;;;-1.34;66.87;101658.14;107605;1256;107856;-63
2023/02/17 02:23:28;;;;;;;59.90;26.10;;;;;;;-1.32;66.83;101659.33;107597;1251;97837;-64
2023/02/17 02:26:02;;;;;;;48.90;24.90;;;;;;;-1.27;67.19;101648.27;107584;1252;97826;-63
2023/02/17 02:28:34;;;;;;;53.50;26.50;;;;;;;-1.19;67.19;101648.09;107585;1254;111251;-62
2023/02/17 02:31:43;;;;;;;53.20;26.50;;;;;;;-1.14;66.80;101648.16;107580;1254;110379;-63
2023/02/17 02:34:20;;;;;;;52.80;25.70;;;;;;;-1.09;66.91;101649.95;107569;1254;108765;-62
2023/02/17 02:37:19;;;;;;;47.50;23.10;;;;;;;-1.09;66.82;101651.02;107575;1254;97839;-64
2023/02/17 02:39:51;;;;;;;59.50;25.90;;;;;;;-1.11;67.06;101650.71;107415;1254;98360;-64
2023/02/17 02:42:23;;;;;;;52.60;25.60;;;;;;;-1.15;67.00;101653.09;107648;1253;112367;-64
2023/02/17 02:44:51;;;;;;;56.00;24.10;;;;;;;-1.18;67.06;101647.02;107580;1254;110118;-63
2023/02/17 02:47:43;;;;;;;47.60;24.80;;;;;;;-1.20;66.90;101645.46;107631;1252;107847;-63
2023/02/17 02:50:24;;;;;;;49.70;24.60;;;;;;;-1.18;66.86;101643.33;107658;1255;97953;-63
2023/02/17 02:53:35;;;;;;;51.60;25.10;;;;;;;-1.20;66.64;101644.76;107646;1253;97812;-62
2023/02/17 02:56:12;;;;;;;52.10;24.60;;;;;;;-1.26;66.39;101644.91;107673;1254;111808;-63
2023/02/17 02:58:59;;;;;;;59.80;24.90;;;;;;;-1.28;66.33;101644.95;107621;1254;108848;-63
2023/02/17 03:01:40;;;;;;;58.30;24.50;;;;;;;-1.30;66.02;101646.96;107423;1252;108714;-65
2023/02/17 03:04:30;;;;;;;59.40;27.10;;;;;;;-1.33;65.99;101645.63;107560;1254;97688;-64
2023/02/17 03:07:07;;;;;;;57.60;25.40;;;;;;;-1.39;65.96;101651.58;107655;1254;98400;-63
2023/02/17 03:09:37;;;;;;;54.50;25.60;;;;;;;-1.42;66.26;101651.30;107614;1256;110316;-63
2023/02/17 03:12:06;;;;;;;58.50;27.10;;;;;;;-1.47;66.00;101650.01;107621;1252;110218;-63
2023/02/17 03:14:37;;;;;;;60.40;27.20;;;;;;;-1.51;65.84;101652.23;107581;1254;108307;-63
2023/02/17 03:17:05;;;;;;;58.30;27.10;;;;;;;-1.56;66.12;101649.52;107586;1254;97870;-63
2023/02/17 03:19:34;;;;;;;55.20;25.40;;;;;;;-1.62;65.92;101654.59;107588;1254;97749;-63
2023/02/17 03:22:16;;;;;;;57.60;27.10;;;;;;;-1.68;65.88;101651.38;107615;1254;112522;-62
2023/02/17 03:24:47;;;;;;;58.00;26.60;;;;;;;-1.73;66.07;101654.48;107614;1254;109522;-62
2023/02/17 03:27:16;;;;;;;62.80;28.40;;;;;;;-1.78;66.36;101651.62;107586;1256;108362;-62
2023/02/17 03:29:44;;;;;;;58.60;26.90;;;;;;;-1.81;66.32;101651.33;107565;1254;97867;-63
2023/02/17 03:32:13;;;;;;;51.90;25.70;;;;;;;-1.83;66.28;101650.66;107581;1252;97720;-64
2023/02/17 03:34:41;;;;;;;52.20;25.00;;;;;;;-1.85;66.16;101651.23;107554;1252;111473;-63
2023/02/17 03:37:10;;;;;;;51.80;25.30;;;;;;;-1.85;66.19;101653.17;107605;1254;110042;-63
2023/02/17 03:39:38;;;;;;;51.70;26.10;;;;;;;-1.86;66.43;101651.98;107569;1254;107073;-64
2023/02/17 03:42:07;;;;;;;47.50;24.50;;;;;;;-1.88;66.47;101652.20;107609;1253;97922;-63
2023/02/17 03:44:35;;;;;;;51.70;25.20;;;;;;;-1.91;66.60;101653.64;107684;1254;98428;-63
2023/02/17 03:47:04;;;;;;;47.00;25.10;;;;;;;-1.92;66.47;101654.20;107600;1252;111784;-63
2023/02/17 03:49:33;;;;;;;47.90;24.20;;;;;;;-1.92;66.69;101654.38;107652;1253;109229;-63
2023/02/17 03:52:01;;;;;;;51.40;25.50;;;;;;;-1.90;66.78;101657.86;107545;1254;109283;-64
2023/02/17 03:54:29;;;;;;;53.30;24.50;;;;;;;-1.91;66.44;101657.69;107510;1254;97831;-64
2023/02/17 03:56:59;;;;;;;56.90;25.90;;;;;;;-1.92;66.19;101657.20;107575;1254;97832;-63
2023/02/17 03:59:29;;;;;;;58.20;26.70;;;;;;;-1.93;66.36;101664.43;107614;1254;111180;-62
2023/02/17 04:01:57;;;;;;;55.30;27.90;;;;;;;-1.95;66.61;101668.69;107605;1254;108743;-62
2023/02/17 04:04:26;;;;;;;55.90;24.80;;;;;;;-1.95;66.73;101668.70;107611;1254;107854;-63
2023/02/17 04:06:55;;;;;;;44.30;23.30;;;;;;;-1.96;66.63;101668.89;107589;1256;97806;-64
2023/02/17 04:09:23;;;;;;;51.50;24.20;;;;;;;-1.94;66.69;101665.17;107604;1252;98447;-61
2023/02/17 04:11:52;;;;;;;52.60;24.80;;;;;;;-1.92;67.14;101660.17;107618;1254;112333;-61
2023/02/17 04:14:20;;;;;;;40.00;21.60;;;;;;;-1.88;67.13;101659.75;107668;1254;109628;-61
2023/02/17 04:16:48;;;;;;;44.60;22.20;;;;;;;-1.84;67.31;101658.79;107621;1254;108317;-61
2023/02/17 04:19:17;;;;;;;42.40;21.30;;;;;;;-1.81;67.91;101653.98;107656;1253;97847;-62
2023/02/17 04:21:48;;;;;;;41.50;21.10;;;;;;;-1.79;67.91;101651.11;107604;1253;97823;-63
2023/02/17 04:24:16;;;;;;;47.00;22.70;;;;;;;-1.77;68.13;101643.68;107652;1252;111168;-63
2023/02/17 04:26:44;;;;;;;45.00;22.10;;;;;;;-1.71;68.34;101645.47;107631;1254;110003;-63
2023/02/17 04:29:13;;;;;;;44.30;22.30;;;;;;;-1.66;68.52;101650.83;107600;1253;107780;-63
2023/02/17 04:31:41;;;;;;;47.00;22.20;;;;;;;-1.63;68.23;101644.58;107589;1254;97930;-62
2023/02/17 04:34:09;;;;;;;43.20;20.80;;;;;;;-1.60;68.64;101646.95;107618;1254;98367;-62
2023/02/17 04:36:37;;;;;;;52.30;22.30;;;;;;;-1.56;68.61;101646.20;107622;1254;111062;-61
2023/02/17 04:39:06;;;;;;;47.40;21.70;;;;;;;-1.53;68.49;101644.71;107646;1256;109729;-61
2023/02/17 04:41:34;;;;;;;36.70;19.50;;;;;;;-1.51;68.43;101647.30;107632;1254;108679;-63
2023/02/17 04:44:02;;;;;;;46.70;21.30;;;;;;;-1.45;68.71;101649.61;107665;1252;97832;-62
2023/02/17 04:46:31;;;;;;;43.30;20.30;;;;;;;-1.40;68.57;101651.42;107592;1253;97704;-64
2023/02/17 04:48:59;;;;;;;37.60;19.60;;;;;;;-1.39;68.57;101647.38;107642;1254;112224;-63
2023/02/17 04:51:28;;;;;;;40.20;18.60;;;;;;;-1.39;68.42;101648.22;107627;1255;109024;-64
2023/02/17 04:53:56;;;;;;;43.80;21.80;;;;;;;-1.35;68.60;101646.73;107622;1255;108381;-64
2023/02/17 04:56:25;;;;;;;46.20;22.60;;;;;;;-1.32;68.80;101646.99;107544;1254;97856;-62
2023/02/17 04:58:53;;;;;;;37.60;21.20;;;;;;;-1.30;68.70;101645.35;107597;1254;98378;-62
2023/02/17 05:01:22;;;;;;;38.40;19.30;;;;;;;-1.30;68.65;101649.25;107610;1256;111736;-63
2023/02/17 05:03:51;;;;;;;40.20;20.50;;;;;;;-1.32;68.00;101645.59;107608;1254;109202;-63
2023/02/17 05:06:20;;;;;;;40.80;19.50;;;;;;;-1.33;67.94;101650.38;107576;1254;108704;-62
2023/02/17 05:08:49;;;;;;;52.70;22.40;;;;;;;-1.36;67.59;101650.11;107569;1254;97905;-62
2023/02/17 05:11:18;;;;;;;45.50;22.50;;;;;;;-1.39;67.59;101655.10;107596;1253;98375;-62
2023/02/17 05:13:46;;;;;;;42.30;19.60;;;;;;;-1.44;67.55;101659.96;107619;1257;111442;-62
2023/02/17 05:16:14;;;;;;;52.20;21.10;;;;;;;-1.50;67.19;101664.49;107622;1254;110156;-61
2023/02/17 05:18:43;;;;;;;43.60;20.40;;;;;;;-1.55;67.22;101668.31;107604;1254;108740;-62
2023/02/17 05:21:11;;;;;;;37.80;18.40;;;;;;;-1.59;67.64;101666.48;107559;1256;97831;-63
2023/02/17 05:23:40;;;;;;;39.80;18.70;;;;;;;-1.65;67.72;101669.25;107639;1254;98379;-61
2023/02/17 05:26:09;;;;;;;42.30;20.10;;;;;;;-1.70;67.41;101671.13;107670;1254;111503;-62
2023/02/17 05:28:37;;;;;;;48.80;19.40;;;;;;;-1.73;67.48;101679.45;107657;1253;110072;-61
2023/02/17 05:31:05;;;;;;;41.50;19.00;;;;;;;-1.75;67.48;101681.80;107654;1254;108156;-61
2023/02/17 05:33:34;;;;;;;40.30;18.70;;;;;;;-1.78;67.37;101683.78;107664;1254;97832;-61
2023/02/17 05:36:06;;;;;;;37.70;19.80;;;;;;;-1.78;67.46;101685.73;107652;1254;97944;-62
2023/02/17 05:38:36;;;;;;;49.90;20.90;;;;;;;-1.77;67.59;101686.42;107641;1253;112023;-63
2023/02/17 05:41:04;;;;;;;42.40;20.30;;;;;;;-1.76;67.97;101684.64;107643;1254;109902;-63
2023/02/17 05:43:33;;;;;;;42.70;21.40;;;;;;;-1.76;67.74;101687.80;107592;1256;108417;-66
2023/02/17 05:46:05;;;;;;;39.40;19.80;;;;;;;-1.77;67.92;101691.17;107602;1255;97912;-62
2023/02/17 05:48:34;;;;;;;44.10;21.60;;;;;;;-1.78;68.31;101693.29;107620;1254;97729;-62
2023/02/17 05:51:03;;;;;;;40.30;20.10;;;;;;;-1.74;68.32;101690.21;107610;1253;111793;-63
2023/02/17 05:53:32;;;;;;;52.30;21.50;;;;;;;-1.74;68.16;101694.06;107649;1254;109851;-62
2023/02/17 05:56:00;;;;;;;42.20;20.80;;;;;;;-1.70;68.35;101695.59;107622;1254;107859;-61
2023/02/17 05:58:29;;;;;;;44.00;21.00;;;;;;;-1.67;69.28;101694.62;107655;1254;97818;-63
2023/02/17 06:00:58;;;;;;;38.70;20.90;;;;;;;-1.60;68.90;101693.05;107591;1253;97854;-62
2023/02/17 06:03:26;;;;;;;45.20;19.10;;;;;;;-1.57;68.56;101693.70;107626;1255;112270;-62
2023/02/17 06:05:54;;;;;;;36.30;19.10;;;;;;;-1.54;68.43;101697.00;107578;1254;109850;-63
2023/02/17 06:08:23;;;;;;;44.10;20.10;;;;;;;-1.52;68.26;101697.09;107620;1254;107898;-62
2023/02/17 06:10:53;;;;;;;37.40;21.30;;;;;;;-1.48;68.32;101699.66;107616;1254;97817;-64
2023/02/17 06:13:21;;;;;;;45.10;21.30;;;;;;;-1.44;68.41;101701.69;107622;1254;97841;-62
2023/02/17 06:15:50;;;;;;;47.50;23.10;;;;;;;-1.37;68.50;101704.33;107619;1254;111220;-62
2023/02/17 06:18:18;;;;;;;50.40;24.50;;;;;;;-1.31;69.04;101702.59;107588;1254;109193;-62
2023/02/17 06:20:47;;;;;;;51.30;22.20;;;;;;;-1.23;69.64;101704.86;107542;1254;107708;-64
2023/02/17 06:23:15;;;;;;;55.00;22.70;;;;;;;-1.14;69.48;101699.38;107586;1254;97918;-64
2023/02/17 06:25:44;;;;;;;44.30;22.30;;;;;;;-1.04;69.51;101708.64;107612;1254;98375;-63
2023/02/17 06:28:12;;;;;;;45.50;21.80;;;;;;;-0.95;69.51;101703.13;107524;1254;112575;-63
2023/02/17 06:30:41;;;;;;;46.10;20.90;;;;;;;-0.87;69.64;101707.85;107545;1254;109048;-62
2023/02/17 06:33:09;;;;;;;45.40;21.40;;;;;;;-0.78;69.60;101709.21;107507;1253;108268;-63
2023/02/17 06:35:38;;;;;;;45.80;21.80;;;;;;;-0.69;69.60;101708.11;107554;1254;97894;-61
2023/02/17 06:38:07;;;;;;;51.80;22.40;;;;;;;-0.63;69.43;101706.52;107621;1254;97706;-63
2023/02/17 06:40:35;;;;;;;47.60;24.30;;;;;;;-0.55;69.70;101709.65;107588;1256;111242;-61
2023/02/17 06:43:05;;;;;;;50.20;22.80;;;;;;;-0.46;69.40;101707.13;107633;1251;110274;-62
2023/02/17 06:45:34;;;;;;;40.70;21.90;;;;;;;-0.37;69.58;101711.29;107685;1254;107452;-62
2023/02/17 06:48:02;;;;;;;50.80;22.30;;;;;;;-0.31;69.27;101714.11;107636;1254;97825;-62
2023/02/17 06:50:31;;;;;;;52.20;23.10;;;;;;;-0.26;69.10;101714.33;107682;1254;97936;-62
2023/02/17 06:52:59;;;;;;;44.70;22.10;;;;;;;-0.21;69.12;101716.11;107636;1253;111801;-61
2023/02/17 06:55:27;;;;;;;41.90;22.40;;;;;;;-0.12;69.07;101721.70;107660;1254;109034;-62
2023/02/17 06:57:56;;;;;;;46.70;22.70;;;;;;;-0.08;68.85;101718.40;107548;1252;108972;-62
2023/02/17 07:00:25;;;;;;;48.90;24.10;;;;;;;-0.06;68.71;101717.98;107576;1254;97803;-61
2023/02/17 07:02:54;;;;;;;47.60;23.50;;;;;;;-0.04;68.57;101713.16;107599;1254;97714;-62
2023/02/17 07:05:23;;;;;;;51.30;22.90;;;;;;;0.00;68.48;101717.64;107716;1251;110922;-61
2023/02/17 07:07:52;;;;;;;43.40;23.10;;;;;;;0.04;68.52;101714.88;107506;1254;109726;-62
2023/02/17 07:10:20;;;;;;;43.80;22.40;;;;;;;0.09;68.53;101718.61;107600;1254;107491;-62
2023/02/17 07:12:52;;;;;;;44.10;22.50;;;;;;;0.14;68.21;101719.89;107610;1255;97848;-62
2023/02/17 07:15:20;;;;;;;46.10;23.50;;;;;;;0.20;68.41;101717.75;107662;1256;98366;-62
2023/02/17 07:17:49;;;;;;;52.40;24.40;;;;;;;0.27;68.40;101714.91;107536;1253;111126;-62
2023/02/17 07:20:18;;;;;;;50.50;25.30;;;;;;;0.35;68.38;101716.27;107675;1254;109948;-62
2023/02/17 07:22:46;;;;;;;50.20;24.40;;;;;;;0.44;68.09;101717.05;107665;1254;107998;-63
2023/02/17 07:25:15;;;;;;;49.10;24.10;;;;;;;0.53;68.44;101715.52;107575;1256;97906;-63
2023/02/17 07:27:43;;;;;;;49.00;24.50;;;;;;;0.64;68.21;101715.36;107638;1256;98011;-61
2023/02/17 07:30:12;;;;;;;53.50;25.00;;;;;;;0.75;68.41;101712.18;107566;1254;112179;-62
2023/02/17 07:32:40;;;;;;;69.30;27.30;;;;;;;0.86;68.55;101710.05;107618;1254;110223;-63
2023/02/17 07:35:09;;;;;;;55.10;26.50;;;;;;;0.97;68.45;101713.59;107640;1254;108575;-61
2023/02/17 07:37:37;;;;;;;46.50;23.30;;;;;;;1.09;68.38;101713.19;107601;1254;97922;-62
2023/02/17 07:40:07;;;;;;;59.60;25.40;;;;;;;1.23;67.97;101715.55;107615;1255;97909;-63
2023/02/17 07:42:35;;;;;;;49.70;24.50;;;;;;;1.40;67.85;101714.08;107664;1254;112925;-61
2023/02/17 07:45:04;;;;;;;49.80;20.90;;;;;;;1.58;67.70;101711.86;107572;1254;109840;-63
2023/02/17 07:47:33;;;;;;;40.80;20.10;;;;;;;1.73;67.35;101708.30;107658;1256;108702;-63
2023/02/17 07:50:01;;;;;;;44.00;19.10;;;;;;;1.94;66.56;101714.99;107510;1255;97816;-62
2023/02/17 07:52:30;;;;;;;40.30;16.50;;;;;;;2.14;65.32;101711.04;107629;1254;97710;-63
2023/02/17 07:54:58;;;;;;;41.30;16.60;;;;;;;2.36;64.64;101711.42;107629;1254;111841;-62
2023/02/17 07:57:26;;;;;;;37.30;17.70;;;;;;;2.56;63.76;101708.52;107513;1254;109145;-62
2023/02/17 07:59:55;;;;;;;40.10;19.10;;;;;;;2.74;63.51;101707.66;107534;1256;108708;-62
2023/02/17 08:02:24;;;;;;;38.80;18.30;;;;;;;2.93;63.54;101712.89;107456;1254;97929;-61
2023/02/17 08:04:52;;;;;;;40.60;17.90;;;;;;;3.13;63.22;101712.42;107561;1254;99006;-63
2023/02/17 08:07:20;;;;;;;42.30;18.00;;;;;;;3.34;62.20;101714.89;107569;1253;111313;-63
2023/02/17 08:15:23;;;;;;;58.60;20.30;;;;;;;4.00;59.96;101721.06;107597;1256;97918;-63
2023/02/17 08:17:52;;;;;;;54.10;22.10;;;;;;;4.19;59.50;101719.84;107546;1255;97826;-62
2023/02/17 08:20:20;;;;;;;64.30;21.90;;;;;;;4.37;58.50;101721.48;107553;1252;110794;-64
2023/02/17 08:22:49;;;;;;;61.70;21.40;;;;;;;4.57;56.58;101718.77;107584;1256;109648;-63
2023/02/17 08:25:18;;;;;;;46.00;21.10;;;;;;;4.76;55.91;101717.63;107614;1256;108724;-63
2023/02/17 08:27:46;;;;;;;60.00;21.30;;;;;;;4.97;55.22;101717.36;107619;1256;97822;-62
2023/02/17 08:30:15;;;;;;;51.50;19.60;;;;;;;5.15;54.57;101719.98;107574;1253;97737;-62
2023/02/17 08:32:46;;;;;;;46.20;20.40;;;;;;;5.33;54.03;101714.13;107634;1254;112426;-63
2023/02/17 08:35:17;;;;;;;55.80;20.00;;;;;;;5.53;54.65;101710.59;107646;1254;107960;-63
2023/02/17 08:37:47;;;;;;;41.30;19.60;;;;;;;5.76;54.93;101705.86;107640;1254;108226;-62
2023/02/17 08:40:17;;;;;;;45.40;19.20;;;;;;;5.97;53.75;101707.41;107640;1257;97830;-62
2023/02/17 08:42:45;;;;;;;54.70;19.30;;;;;;;6.20;53.21;101708.66;107571;1256;97822;-62
2023/02/17 08:45:15;;;;;;;39.30;17.50;;;;;;;6.44;52.75;101705.02;107556;1254;112298;-62
2023/02/17 08:47:44;;;;;;;39.50;16.90;;;;;;;6.68;51.44;101700.83;107701;1254;109185;-62
2023/02/17 08:50:14;;;;;;;50.30;17.70;;;;;;;6.90;49.96;101696.19;107563;1254;107540;-64
2023/02/17 08:52:43;;;;;;;38.90;17.20;;;;;;;7.15;49.60;101697.76;107653;1254;97918;-62
2023/02/17 08:55:12;;;;;;;37.90;16.00;;;;;;;7.38;48.95;101696.92;107594;1255;97828;-62
2023/02/17 08:57:40;;;;;;;37.80;16.20;;;;;;;7.60;48.07;101688.84;107595;1254;111493;-61
2023/02/17 09:00:09;;;;;;;36.10;17.00;;;;;;;7.80;47.18;101695.95;107652;1254;109729;-64
2023/02/17 09:02:38;;;;;;;34.20;16.50;;;;;;;8.03;47.33;101687.75;107546;1256;107640;-63
2023/02/17 09:05:06;;;;;;;36.20;16.30;;;;;;;8.26;46.10;101685.41;107561;1258;97867;-63
2023/02/17 09:07:35;;;;;;;30.40;16.30;;;;;;;8.49;45.65;101684.48;107645;1257;98379;-62
2023/02/17 09:10:06;;;;;;;39.40;17.00;;;;;;;8.69;45.25;101684.44;107529;1257;111822;-62
2023/02/17 09:12:34;;;;;;;37.90;17.00;;;;;;;8.88;45.05;101682.47;107685;1256;109736;-63
2023/02/17 09:15:04;;;;;;;37.30;17.20;;;;;;;9.14;45.27;101680.61;107636;1257;107959;-62
2023/02/17 09:17:32;;;;;;;39.80;16.80;;;;;;;9.42;44.30;101674.70;107616;1254;97834;-62
2023/02/17 09:20:00;;;;;;;42.10;18.60;;;;;;;9.81;43.72;101672.02;107583;1254;97976;-63
2023/02/17 09:22:29;;;;;;;30.50;16.50;;;;;;;10.39;42.59;101672.21;107628;1257;111844;-62
2023/02/17 09:24:59;;;;;;;34.50;16.40;;;;;;;11.02;41.16;101669.34;107520;1254;109723;-62
2023/02/17 09:27:28;;;;;;;34.20;17.00;;;;;;;11.21;40.28;101668.58;107585;1256;107777;-62
2023/02/17 09:29:57;;;;;;;39.10;17.30;;;;;;;11.08;40.20;101673.67;107584;1254;97841;-62
2023/02/17 09:32:25;;;;;;;39.10;16.90;;;;;;;11.15;40.22;101670.85;107643;1254;98360;-62
2023/02/17 09:34:53;;;;;;;34.60;17.60;;;;;;;11.43;40.14;101665.30;107595;1256;112102;-62
2023/02/17 09:37:22;;;;;;;34.30;16.30;;;;;;;11.71;40.42;101661.16;107622;1251;110052;-61
2023/02/17 09:39:51;;;;;;;33.30;19.00;;;;;;;11.79;39.97;101660.84;107584;1257;108642;-62
2023/02/17 09:42:26;;;;;;;33.60;17.50;;;;;;;11.85;39.53;101655.92;107529;1256;97873;-63
2023/02/17 09:45:03;;;;;;;33.60;15.20;;;;;;;12.08;38.96;101652.14;107588;1251;98385;-62
2023/02/17 09:48:10;;;;;;;28.00;13.80;;;;;;;12.07;37.86;101652.52;107613;1256;112220;-62
2023/02/17 09:50:43;;;;;;;18.80;11.90;;;;;;;12.13;37.46;101647.94;107032;1260;109754;-63
2023/02/17 09:53:43;;;;;;;22.80;12.90;;;;;;;12.30;36.79;101645.50;107529;1254;108382;-62
2023/02/17 09:56:17;;;;;;;21.90;13.00;;;;;;;12.41;36.74;101644.93;107295;1254;97826;-62
2023/02/17 09:58:53;;;;;;;28.80;13.70;;;;;;;12.28;36.11;101646.35;107584;1255;97832;-62
2023/02/17 10:01:28;;;;;;;32.10;14.90;;;;;;;12.48;36.24;101642.02;107594;1254;110982;-61
2023/02/17 10:04:13;;;;;;;35.40;14.00;;;;;;;12.83;35.44;101639.67;107675;1257;109699;-62
2023/02/17 10:06:46;;;;;;;24.90;12.80;;;;;;;12.86;35.20;101633.64;107667;1254;108434;-63
2023/02/17 10:09:23;;;;;;;25.70;13.50;;;;;;;12.85;35.05;101627.10;107633;1257;97825;-62
2023/02/17 10:12:15;;;;;;;22.40;11.80;;;;;;;12.82;34.86;101626.09;107646;1257;98373;-61
2023/02/17 10:15:16;;;;;;;24.90;11.90;;;;;;;12.59;34.99;101624.16;107603;1254;112345;-62
2023/02/17 10:18:29;;;;;;;24.00;13.20;;;;;;;12.30;35.51;101618.52;107539;1256;110076;-61
2023/02/17 10:21:06;;;;;;;26.20;14.30;;;;;;;12.22;36.05;101615.92;107487;1254;107891;-62
2023/02/17 10:23:34;;;;;;;28.10;13.50;;;;;;;12.26;36.65;101613.07;107659;1251;97739;-62
2023/02/17 10:26:24;;;;;;;36.70;16.30;;;;;;;12.24;36.48;101613.75;107672;1254;97826;-63
2023/02/17 10:29:04;;;;;;;25.30;13.30;;;;;;;12.11;36.06;101616.04;107680;1254;111690;-62
2023/02/17 10:31:59;;;;;;;26.30;14.00;;;;;;;12.01;36.35;101608.81;107590;1251;109533;-61
2023/02/17 10:34:35;;;;;;;25.60;13.40;;;;;;;11.90;36.31;101602.46;107672;1254;107814;-62
2023/02/17 10:37:13;;;;;;;26.70;14.60;;;;;;;11.85;36.31;101603.09;107542;1254;97847;-62
2023/02/17 10:39:50;;;;;;;23.20;12.80;;;;;;;11.81;36.36;101597.21;107626;1254;97816;-62
2023/02/17 10:42:24;;;;;;;34.00;14.10;;;;;;;11.85;36.39;101599.27;107457;1255;112405;-63
2023/02/17 10:44:59;;;;;;;23.60;12.50;;;;;;;11.83;36.11;101596.21;107615;1257;109244;-62
2023/02/17 10:47:30;;;;;;;27.10;13.00;;;;;;;11.86;36.45;101587.83;107008;1254;107710;-62
2023/02/17 10:50:00;;;;;;;25.20;13.40;;;;;;;11.94;36.51;101584.22;107478;1254;97908;-63
2023/02/17 10:52:37;;;;;;;23.60;12.30;;;;;;;11.97;36.31;101590.09;107525;1253;97829;-63
2023/02/17 10:55:23;;;;;;;32.30;14.20;;;;;;;11.98;36.58;101586.39;107385;1251;112423;-64
2023/02/17 10:58:04;;;;;;;30.70;14.00;;;;;;;12.05;36.70;101580.06;107502;1254;109931;-63
2023/02/17 11:00:32;;;;;;;28.40;14.60;;;;;;;12.13;36.90;101576.19;107500;1254;107680;-63
2023/02/17 11:03:01;;;;;;;30.20;14.20;;;;;;;12.08;36.34;101573.92;107605;1254;97925;-62
2023/02/17 11:05:32;;;;;;;20.10;13.40;;;;;;;11.93;36.13;101575.65;107544;1254;98379;-64
2023/02/17 11:08:23;;;;;;;28.70;13.90;;;;;;;11.75;36.52;101572.91;107539;1255;112533;-62
2023/02/17 11:11:00;;;;;;;22.20;13.70;;;;;;;11.54;36.71;101573.36;107525;1256;110935;-61
2023/02/17 11:13:41;;;;;;;24.80;12.90;;;;;;;11.42;37.18;101571.61;107546;1254;107951;-62
2023/02/17 11:16:28;;;;;;;32.70;14.10;;;;;;;11.44;37.60;101564.04;107513;1254;97844;-61
2023/02/17 11:18:56;;;;;;;25.60;13.30;;;;;;;11.54;37.24;101560.81;107593;1251;97714;-62
2023/02/17 11:21:28;;;;;;;26.80;13.40;;;;;;;11.56;37.20;101561.33;107634;1253;111686;-62
2023/02/17 11:24:03;;;;;;;30.70;14.30;;;;;;;11.60;37.16;101556.38;107690;1254;109974;-63
2023/02/17 11:26:35;;;;;;;22.40;13.50;;;;;;;11.61;37.35;101551.79;107485;1254;108652;-62